<?xml version='1.0' encoding='UTF-8'?><gpx version="1.1" creator="JPX - https://github.com/jenetics/jpx" xmlns="http://www.topografix.com/GPX/1/1"><trk><trkseg><trkpt lat="44.895659465746206" lon="8.987363317211042"><ele>175.0</ele><time>2026-04-19T15:29:16.998Z</time></trkpt><trkpt lat="44.89579146706875" lon="8.987423247281773"><ele>175.0</ele><time>2026-04-19T15:29:18.998Z</time></trkpt><trkpt lat="44.89587689150951" lon="8.9874585747035"><ele>175.0</ele><time>2026-04-19T15:29:19.998Z</time></trkpt><trkpt lat="44.89596739902787" lon="8.987509104406652"><ele>175.0</ele><time>2026-04-19T15:29:20.998Z</time></trkpt><trkpt lat="44.89605630922445" lon="8.987577654708776"><ele>175.0</ele><time>2026-04-19T15:29:21.998Z</time></trkpt><trkpt lat="44.8961412864144" lon="8.987645673786702"><ele>175.4</ele><time>2026-04-19T15:29:22.998Z</time></trkpt><trkpt lat="44.896230086912105" lon="8.987713805961793"><ele>175.8</ele><time>2026-04-19T15:29:23.998Z</time></trkpt><trkpt lat="44.89632492706339" lon="8.987760188037027"><ele>176.2</ele><time>2026-04-19T15:29:24.998Z</time></trkpt><trkpt lat="44.896405648547606" lon="8.987824133469829"><ele>176.6</ele><time>2026-04-19T15:29:25.998Z</time></trkpt><trkpt lat="44.896477960931406" lon="8.98787304918808"><ele>177.0</ele><time>2026-04-19T15:29:26.998Z</time></trkpt><trkpt lat="44.89657290541319" lon="8.9879289643279"><ele>177.0</ele><time>2026-04-19T15:29:27.998Z</time></trkpt><trkpt lat="44.896651065823896" lon="8.987995111790255"><ele>177.0</ele><time>2026-04-19T15:29:28.998Z</time></trkpt><trkpt lat="44.89673891782424" lon="8.988068905468458"><ele>177.0</ele><time>2026-04-19T15:29:29.998Z</time></trkpt><trkpt lat="44.896826895965624" lon="8.988167801733017"><ele>177.0</ele><time>2026-04-19T15:29:30.998Z</time></trkpt><trkpt lat="44.89691202707964" lon="8.988260453781201"><ele>177.0</ele><time>2026-04-19T15:29:31.998Z</time></trkpt><trkpt lat="44.8970003902373" lon="8.988352541137202"><ele>177.0</ele><time>2026-04-19T15:29:32.998Z</time></trkpt><trkpt lat="44.89708440959198" lon="8.988450915829802"><ele>177.0</ele><time>2026-04-19T15:29:33.998Z</time></trkpt><trkpt lat="44.897166827956354" lon="8.988542635658261"><ele>177.0</ele><time>2026-04-19T15:29:34.998Z</time></trkpt><trkpt lat="44.89725212660603" lon="8.988638368409045"><ele>177.0</ele><time>2026-04-19T15:29:35.998Z</time></trkpt><trkpt lat="44.89732752604713" lon="8.988717618316999"><ele>177.0</ele><time>2026-04-19T15:29:36.998Z</time></trkpt><trkpt lat="44.89740824097876" lon="8.988806285504944"><ele>177.0</ele><time>2026-04-19T15:29:37.998Z</time></trkpt><trkpt lat="44.89748891471909" lon="8.988900666013011"><ele>177.0</ele><time>2026-04-19T15:29:38.998Z</time></trkpt><trkpt lat="44.89757816430403" lon="8.989005330183476"><ele>177.0</ele><time>2026-04-19T15:29:39.997Z</time></trkpt><trkpt lat="44.89764911647106" lon="8.989122741839934"><ele>177.0</ele><time>2026-04-19T15:29:40.997Z</time></trkpt><trkpt lat="44.89774034302824" lon="8.989226960486151"><ele>177.0</ele><time>2026-04-19T15:29:41.997Z</time></trkpt><trkpt lat="44.89783294708896" lon="8.989318180327448"><ele>176.8</ele><time>2026-04-19T15:29:42.997Z</time></trkpt><trkpt lat="44.89791764532506" lon="8.989430377979977"><ele>176.6</ele><time>2026-04-19T15:29:43.997Z</time></trkpt><trkpt lat="44.898015871721796" lon="8.989528332443632"><ele>176.4</ele><time>2026-04-19T15:29:44.997Z</time></trkpt><trkpt lat="44.89809241888284" lon="8.989634667546785"><ele>176.20000000000002</ele><time>2026-04-19T15:29:45.997Z</time></trkpt><trkpt lat="44.89816215128867" lon="8.989725352115736"><ele>176.0</ele><time>2026-04-19T15:29:46.997Z</time></trkpt><trkpt lat="44.89822908172776" lon="8.9898192048257"><ele>176.0</ele><time>2026-04-19T15:29:47.997Z</time></trkpt><trkpt lat="44.89830319247147" lon="8.989917707990566"><ele>176.0</ele><time>2026-04-19T15:29:48.997Z</time></trkpt><trkpt lat="44.89837396248139" lon="8.990026757651982"><ele>176.0</ele><time>2026-04-19T15:29:49.997Z</time></trkpt><trkpt lat="44.89844129151267" lon="8.990139320573151"><ele>176.0</ele><time>2026-04-19T15:29:50.997Z</time></trkpt><trkpt lat="44.898508196747564" lon="8.990260187052586"><ele>176.0</ele><time>2026-04-19T15:29:51.997Z</time></trkpt><trkpt lat="44.89856750394178" lon="8.990361011623813"><ele>176.66666666666666</ele><time>2026-04-19T15:29:52.997Z</time></trkpt><trkpt lat="44.89862784954135" lon="8.990440621090043"><ele>177.33333333333331</ele><time>2026-04-19T15:29:53.997Z</time></trkpt><trkpt lat="44.898675211622574" lon="8.990539542052774"><ele>178.0</ele><time>2026-04-19T15:29:54.997Z</time></trkpt><trkpt lat="44.898748473885135" lon="8.990614494184305"><ele>178.66666666666666</ele><time>2026-04-19T15:29:55.997Z</time></trkpt><trkpt lat="44.89881083652108" lon="8.990708150000886"><ele>179.33333333333334</ele><time>2026-04-19T15:29:56.997Z</time></trkpt><trkpt lat="44.89885707559657" lon="8.99077575040409"><ele>180.0</ele><time>2026-04-19T15:29:57.997Z</time></trkpt><trkpt lat="44.89890870369944" lon="8.990844737653019"><ele>181.0</ele><time>2026-04-19T15:29:58.997Z</time></trkpt><trkpt lat="44.89902580118269" lon="8.990914294372082"><ele>182.0</ele><time>2026-04-19T15:30:00.997Z</time></trkpt><trkpt lat="44.89908929505147" lon="8.990946304341989"><ele>183.0</ele><time>2026-04-19T15:30:03.997Z</time></trkpt><trkpt lat="44.89916082630338" lon="8.991033055954574"><ele>184.0</ele><time>2026-04-19T15:30:10.999Z</time></trkpt><trkpt lat="44.89923406194488" lon="8.991105691058838"><ele>185.0</ele><time>2026-04-19T15:30:11.999Z</time></trkpt><trkpt lat="44.89932074035616" lon="8.991174470724514"><ele>185.0</ele><time>2026-04-19T15:30:12.999Z</time></trkpt><trkpt lat="44.899393855564284" lon="8.991265229182991"><ele>185.0</ele><time>2026-04-19T15:30:13.999Z</time></trkpt><trkpt lat="44.899468050252786" lon="8.991346014552432"><ele>185.0</ele><time>2026-04-19T15:30:14.999Z</time></trkpt><trkpt lat="44.899553818352" lon="8.9914395231411"><ele>185.0</ele><time>2026-04-19T15:30:15.999Z</time></trkpt><trkpt lat="44.89964618355261" lon="8.991549944437754"><ele>185.0</ele><time>2026-04-19T15:30:16.999Z</time></trkpt><trkpt lat="44.899730074050524" lon="8.991642685674185"><ele>187.2</ele><time>2026-04-19T15:30:17.999Z</time></trkpt><trkpt lat="44.89980612624411" lon="8.991729780814108"><ele>189.4</ele><time>2026-04-19T15:30:18.999Z</time></trkpt><trkpt lat="44.899883195242005" lon="8.991816636681067"><ele>191.60000000000002</ele><time>2026-04-19T15:30:19.999Z</time></trkpt><trkpt lat="44.899948820630904" lon="8.99189022664066"><ele>193.8</ele><time>2026-04-19T15:30:20.999Z</time></trkpt><trkpt lat="44.90003289961655" lon="8.991945354563645"><ele>196.0</ele><time>2026-04-19T15:30:21.999Z</time></trkpt><trkpt lat="44.90011998738183" lon="8.991982363408402"><ele>196.8</ele><time>2026-04-19T15:30:22.999Z</time></trkpt><trkpt lat="44.90021991875101" lon="8.99204129920873"><ele>197.60000000000002</ele><time>2026-04-19T15:30:23.999Z</time></trkpt><trkpt lat="44.900313063354176" lon="8.99209780409595"><ele>198.4</ele><time>2026-04-19T15:30:24.999Z</time></trkpt><trkpt lat="44.90040160057701" lon="8.992145457979914"><ele>199.2</ele><time>2026-04-19T15:30:25.999Z</time></trkpt><trkpt lat="44.900484513798446" lon="8.99219864305609"><ele>200.0</ele><time>2026-04-19T15:30:26.999Z</time></trkpt><trkpt lat="44.90058891144633" lon="8.99224283516044"><ele>200.0</ele><time>2026-04-19T15:30:27.999Z</time></trkpt><trkpt lat="44.90068759341075" lon="8.99227252863553"><ele>200.0</ele><time>2026-04-19T15:30:28.999Z</time></trkpt><trkpt lat="44.90077911640086" lon="8.992285554829682"><ele>200.0</ele><time>2026-04-19T15:30:29.999Z</time></trkpt><trkpt lat="44.90088782115676" lon="8.99228890238548"><ele>200.0</ele><time>2026-04-19T15:30:30.999Z</time></trkpt><trkpt lat="44.90098740715555" lon="8.992268783806598"><ele>200.0</ele><time>2026-04-19T15:30:31.999Z</time></trkpt><trkpt lat="44.90107725593432" lon="8.992263056833952"><ele>200.6</ele><time>2026-04-19T15:30:32.999Z</time></trkpt><trkpt lat="44.90117449714446" lon="8.992286300372246"><ele>201.2</ele><time>2026-04-19T15:30:33.999Z</time></trkpt><trkpt lat="44.90126765550047" lon="8.992296511967401"><ele>201.8</ele><time>2026-04-19T15:30:34.999Z</time></trkpt><trkpt lat="44.90135225744128" lon="8.992305893509108"><ele>202.4</ele><time>2026-04-19T15:30:35.999Z</time></trkpt><trkpt lat="44.901435748348135" lon="8.992321678982593"><ele>203.0</ele><time>2026-04-19T15:30:36.999Z</time></trkpt><trkpt lat="44.90152357393319" lon="8.992348360001934"><ele>203.00000000000003</ele><time>2026-04-19T15:30:37.999Z</time></trkpt><trkpt lat="44.901596955719825" lon="8.992382814854286"><ele>203.0</ele><time>2026-04-19T15:30:38.999Z</time></trkpt><trkpt lat="44.9016625649185" lon="8.992418364312405"><ele>203.0</ele><time>2026-04-19T15:30:39.999Z</time></trkpt><trkpt lat="44.901733388840874" lon="8.992462315638662"><ele>203.0</ele><time>2026-04-19T15:30:40.999Z</time></trkpt><trkpt lat="44.90179415671997" lon="8.992503613963112"><ele>203.00000000000003</ele><time>2026-04-19T15:30:41.999Z</time></trkpt><trkpt lat="44.901897497132104" lon="8.992580348278699"><ele>203.0</ele><time>2026-04-19T15:30:43.999Z</time></trkpt><trkpt lat="44.90200616495014" lon="8.992652305289793"><ele>204.5</ele><time>2026-04-19T15:30:45.999Z</time></trkpt><trkpt lat="44.90208763254653" lon="8.992746226058633"><ele>206.0</ele><time>2026-04-19T15:30:47.999Z</time></trkpt><trkpt lat="44.902179596972054" lon="8.992873480452124"><ele>207.5</ele><time>2026-04-19T15:30:49.999Z</time></trkpt><trkpt lat="44.9022379013793" lon="8.993008511768455"><ele>209.0</ele><time>2026-04-19T15:30:51.999Z</time></trkpt><trkpt lat="44.9022384793308" lon="8.993155492978817"><ele>209.0</ele><time>2026-04-19T15:30:53.999Z</time></trkpt><trkpt lat="44.902150773984964" lon="8.993196030744912"><ele>209.0</ele><time>2026-04-19T15:30:55.999Z</time></trkpt><trkpt lat="44.9020913260315" lon="8.993267083982644"><ele>209.0</ele><time>2026-04-19T15:30:57.999Z</time></trkpt><trkpt lat="44.90202457770856" lon="8.993346333555118"><ele>209.0</ele><time>2026-04-19T15:31:00.999Z</time></trkpt><trkpt lat="44.90213773579958" lon="8.993418049425213"><ele>209.0</ele><time>2026-04-19T15:31:02.999Z</time></trkpt><trkpt lat="44.9022400164047" lon="8.993474660503704"><ele>208.83333333333334</ele><time>2026-04-19T15:31:04.999Z</time></trkpt><trkpt lat="44.90233660215879" lon="8.993522719370183"><ele>208.66666666666669</ele><time>2026-04-19T15:31:06.998Z</time></trkpt><trkpt lat="44.90239961368876" lon="8.993535224215618"><ele>208.5</ele><time>2026-04-19T15:31:07.998Z</time></trkpt><trkpt lat="44.90251654759176" lon="8.993616389821733"><ele>208.33333333333331</ele><time>2026-04-19T15:31:09.998Z</time></trkpt><trkpt lat="44.90257958797296" lon="8.993646807000529"><ele>208.16666666666666</ele><time>2026-04-19T15:31:10.998Z</time></trkpt><trkpt lat="44.90265401982986" lon="8.993677959068231"><ele>208.0</ele><time>2026-04-19T15:31:11.998Z</time></trkpt><trkpt lat="44.90271879635563" lon="8.993689167762678"><ele>207.2</ele><time>2026-04-19T15:31:12.998Z</time></trkpt><trkpt lat="44.90279846388348" lon="8.993691143936369"><ele>206.4</ele><time>2026-04-19T15:31:13.998Z</time></trkpt><trkpt lat="44.90291846411701" lon="8.993655844184342"><ele>205.6</ele><time>2026-04-19T15:31:15.998Z</time></trkpt><trkpt lat="44.90304855593123" lon="8.993620701690839"><ele>204.79999999999998</ele><time>2026-04-19T15:31:17.998Z</time></trkpt><trkpt lat="44.90312364038437" lon="8.993607108923483"><ele>204.0</ele><time>2026-04-19T15:31:18.998Z</time></trkpt><trkpt lat="44.90319726762047" lon="8.993580389975"><ele>204.0</ele><time>2026-04-19T15:31:19.998Z</time></trkpt><trkpt lat="44.90328439899217" lon="8.993558940662604"><ele>204.0</ele><time>2026-04-19T15:31:20.998Z</time></trkpt><trkpt lat="44.90336728055468" lon="8.99354057318328"><ele>204.0</ele><time>2026-04-19T15:31:21.998Z</time></trkpt><trkpt lat="44.903450708878815" lon="8.993513036866513"><ele>204.0</ele><time>2026-04-19T15:31:22.998Z</time></trkpt><trkpt lat="44.90354219301483" lon="8.993494586350193"><ele>204.0</ele><time>2026-04-19T15:31:23.998Z</time></trkpt><trkpt lat="44.90360691137055" lon="8.993471066796882"><ele>204.0</ele><time>2026-04-19T15:31:24.998Z</time></trkpt><trkpt lat="44.90368439361573" lon="8.993451484808183"><ele>203.0</ele><time>2026-04-19T15:31:25.998Z</time></trkpt><trkpt lat="44.90376191843399" lon="8.993450517638495"><ele>202.0</ele><time>2026-04-19T15:31:26.998Z</time></trkpt><trkpt lat="44.9038366804089" lon="8.993431840025277"><ele>201.0</ele><time>2026-04-19T15:31:27.998Z</time></trkpt><trkpt lat="44.90392285356056" lon="8.993410311607272"><ele>200.0</ele><time>2026-04-19T15:31:28.998Z</time></trkpt><trkpt lat="44.903993461771975" lon="8.993392671721839"><ele>199.0</ele><time>2026-04-19T15:31:29.998Z</time></trkpt><trkpt lat="44.90406334155976" lon="8.99337521383644"><ele>198.0</ele><time>2026-04-19T15:31:30.998Z</time></trkpt><trkpt lat="44.90419283559031" lon="8.993342862666333"><ele>197.83333333333334</ele><time>2026-04-19T15:31:32.998Z</time></trkpt><trkpt lat="44.90425662871267" lon="8.993326925378577"><ele>197.66666666666669</ele><time>2026-04-19T15:31:33.998Z</time></trkpt><trkpt lat="44.90432824503608" lon="8.993309033676747"><ele>197.5</ele><time>2026-04-19T15:31:34.998Z</time></trkpt><trkpt lat="44.90439900783603" lon="8.993291355184894"><ele>197.33333333333334</ele><time>2026-04-19T15:31:35.998Z</time></trkpt><trkpt lat="44.9045126453635" lon="8.99326364577363"><ele>197.16666666666669</ele><time>2026-04-19T15:31:37.998Z</time></trkpt><trkpt lat="44.904614265891624" lon="8.993239764046873"><ele>197.0</ele><time>2026-04-19T15:31:39.998Z</time></trkpt><trkpt lat="44.90472540109114" lon="8.993216143216246"><ele>197.0</ele><time>2026-04-19T15:31:41.998Z</time></trkpt><trkpt lat="44.90482700375096" lon="8.993194548471548"><ele>197.0</ele><time>2026-04-19T15:31:43.998Z</time></trkpt><trkpt lat="44.90493668975061" lon="8.993170702361573"><ele>197.0</ele><time>2026-04-19T15:31:45.997Z</time></trkpt><trkpt lat="44.90506200313173" lon="8.99314239853733"><ele>197.0</ele><time>2026-04-19T15:31:47.997Z</time></trkpt><trkpt lat="44.905127141249274" lon="8.993127686101486"><ele>197.0</ele><time>2026-04-19T15:31:48.997Z</time></trkpt><trkpt lat="44.90520355791886" lon="8.993110426302865"><ele>196.50000000000003</ele><time>2026-04-19T15:31:49.997Z</time></trkpt><trkpt lat="44.90527953083775" lon="8.993092415904393"><ele>196.0</ele><time>2026-04-19T15:31:50.997Z</time></trkpt><trkpt lat="44.90534497536209" lon="8.993076525628496"><ele>195.5</ele><time>2026-04-19T15:31:51.997Z</time></trkpt><trkpt lat="44.90542253218313" lon="8.993057693702744"><ele>195.0</ele><time>2026-04-19T15:31:52.997Z</time></trkpt><trkpt lat="44.90548696334522" lon="8.993042048883135"><ele>194.50000000000003</ele><time>2026-04-19T15:31:53.997Z</time></trkpt><trkpt lat="44.90558178068555" lon="8.993019025845687"><ele>194.0</ele><time>2026-04-19T15:31:54.997Z</time></trkpt><trkpt lat="44.90567319950776" lon="8.992996828052291"><ele>194.0</ele><time>2026-04-19T15:31:55.997Z</time></trkpt><trkpt lat="44.90575412896086" lon="8.992977177226088"><ele>194.0</ele><time>2026-04-19T15:31:56.997Z</time></trkpt><trkpt lat="44.90583040199593" lon="8.992959146387092"><ele>194.0</ele><time>2026-04-19T15:31:57.997Z</time></trkpt><trkpt lat="44.90591949199859" lon="8.992938182548105"><ele>194.0</ele><time>2026-04-19T15:31:58.997Z</time></trkpt><trkpt lat="44.90600645626498" lon="8.992917719010462"><ele>194.0</ele><time>2026-04-19T15:31:59.997Z</time></trkpt><trkpt lat="44.906124661190546" lon="8.992866772385309"><ele>193.50000000000003</ele><time>2026-04-19T15:32:01.997Z</time></trkpt><trkpt lat="44.90619253302155" lon="8.992855864425097"><ele>193.0</ele><time>2026-04-19T15:32:02.997Z</time></trkpt><trkpt lat="44.906259045425216" lon="8.992841346005589"><ele>192.5</ele><time>2026-04-19T15:32:03.997Z</time></trkpt><trkpt lat="44.90636150610158" lon="8.992837237926633"><ele>192.0</ele><time>2026-04-19T15:32:05.997Z</time></trkpt><trkpt lat="44.906455342711254" lon="8.992804728158896"><ele>191.5</ele><time>2026-04-19T15:32:07.997Z</time></trkpt><trkpt lat="44.90655038409684" lon="8.992761668068379"><ele>191.0</ele><time>2026-04-19T15:32:09.997Z</time></trkpt><trkpt lat="44.906651963504515" lon="8.992678904966079"><ele>191.0</ele><time>2026-04-19T15:32:11.997Z</time></trkpt><trkpt lat="44.90671649048903" lon="8.992617902175242"><ele>191.0</ele><time>2026-04-19T15:32:12.997Z</time></trkpt><trkpt lat="44.9067941318078" lon="8.99254034741092"><ele>191.0</ele><time>2026-04-19T15:32:13.997Z</time></trkpt><trkpt lat="44.906882164584296" lon="8.992514881190298"><ele>191.0</ele><time>2026-04-19T15:32:14.997Z</time></trkpt><trkpt lat="44.90697457688706" lon="8.992467796856767"><ele>191.0</ele><time>2026-04-19T15:32:15.999Z</time></trkpt><trkpt lat="44.907069885119654" lon="8.992421684913676"><ele>191.0</ele><time>2026-04-19T15:32:16.999Z</time></trkpt><trkpt lat="44.907136527021294" lon="8.992389716082803"><ele>191.0</ele><time>2026-04-19T15:32:17.999Z</time></trkpt><trkpt lat="44.9072154589308" lon="8.99235185160822"><ele>191.0</ele><time>2026-04-19T15:32:18.999Z</time></trkpt><trkpt lat="44.90729229240561" lon="8.992302177207812"><ele>191.0</ele><time>2026-04-19T15:32:19.999Z</time></trkpt><trkpt lat="44.90738144255884" lon="8.992275689725506"><ele>191.0</ele><time>2026-04-19T15:32:20.999Z</time></trkpt><trkpt lat="44.90746893778269" lon="8.9922358052228"><ele>191.0</ele><time>2026-04-19T15:32:21.999Z</time></trkpt><trkpt lat="44.907548021181825" lon="8.99219965088059"><ele>190.0</ele><time>2026-04-19T15:32:22.999Z</time></trkpt><trkpt lat="44.90763147918084" lon="8.992152109259546"><ele>189.0</ele><time>2026-04-19T15:32:23.999Z</time></trkpt><trkpt lat="44.90771061966443" lon="8.992113922773147"><ele>188.0</ele><time>2026-04-19T15:32:24.999Z</time></trkpt><trkpt lat="44.90779628722454" lon="8.992073135090351"><ele>187.0</ele><time>2026-04-19T15:32:25.999Z</time></trkpt><trkpt lat="44.90787909562872" lon="8.992034435106506"><ele>186.0</ele><time>2026-04-19T15:32:26.999Z</time></trkpt><trkpt lat="44.90795854447508" lon="8.991995685510089"><ele>185.0</ele><time>2026-04-19T15:32:27.999Z</time></trkpt><trkpt lat="44.908039549013765" lon="8.991959172273482"><ele>185.0</ele><time>2026-04-19T15:32:28.999Z</time></trkpt><trkpt lat="44.90812012073789" lon="8.991920425935415"><ele>185.0</ele><time>2026-04-19T15:32:29.999Z</time></trkpt><trkpt lat="44.90819851360158" lon="8.991883646180206"><ele>185.0</ele><time>2026-04-19T15:32:30.999Z</time></trkpt><trkpt lat="44.908285171517655" lon="8.99185057714599"><ele>185.0</ele><time>2026-04-19T15:32:31.999Z</time></trkpt><trkpt lat="44.908367745189054" lon="8.991821084802467"><ele>185.0</ele><time>2026-04-19T15:32:32.999Z</time></trkpt><trkpt lat="44.908448454523075" lon="8.991802814094836"><ele>185.0</ele><time>2026-04-19T15:32:33.999Z</time></trkpt><trkpt lat="44.90852905215196" lon="8.991769822599114"><ele>184.16666666666666</ele><time>2026-04-19T15:32:34.999Z</time></trkpt><trkpt lat="44.90861016857507" lon="8.991768875388605"><ele>183.33333333333331</ele><time>2026-04-19T15:32:35.999Z</time></trkpt><trkpt lat="44.9086800479324" lon="8.991725089847689"><ele>182.5</ele><time>2026-04-19T15:32:36.999Z</time></trkpt><trkpt lat="44.908748164925356" lon="8.991705473294092"><ele>181.66666666666666</ele><time>2026-04-19T15:32:37.999Z</time></trkpt><trkpt lat="44.90884086728543" lon="8.99170683332033"><ele>180.83333333333334</ele><time>2026-04-19T15:32:39.999Z</time></trkpt><trkpt lat="44.90885189388288" lon="8.991851704816437"><ele>180.0</ele><time>2026-04-19T15:32:41.999Z</time></trkpt><trkpt lat="44.908858013301" lon="8.991959423459672"><ele>180.0</ele><time>2026-04-19T15:32:42.999Z</time></trkpt><trkpt lat="44.908846776851696" lon="8.992085701287165"><ele>180.0</ele><time>2026-04-19T15:32:43.999Z</time></trkpt><trkpt lat="44.90885052954188" lon="8.992218990257594"><ele>180.0</ele><time>2026-04-19T15:32:44.999Z</time></trkpt><trkpt lat="44.90886194983829" lon="8.99236452958947"><ele>180.0</ele><time>2026-04-19T15:32:45.999Z</time></trkpt><trkpt lat="44.90886986224506" lon="8.992533212160131"><ele>180.0</ele><time>2026-04-19T15:32:46.999Z</time></trkpt><trkpt lat="44.90887611472688" lon="8.992715166702375"><ele>178.75</ele><time>2026-04-19T15:32:47.999Z</time></trkpt><trkpt lat="44.90887542284111" lon="8.992904230059036"><ele>177.5</ele><time>2026-04-19T15:32:48.999Z</time></trkpt><trkpt lat="44.90887711740264" lon="8.9930849597547"><ele>176.25</ele><time>2026-04-19T15:32:49.999Z</time></trkpt><trkpt lat="44.9088856065187" lon="8.993278453081869"><ele>175.0</ele><time>2026-04-19T15:32:50.999Z</time></trkpt><trkpt lat="44.90888995188387" lon="8.993470906886015"><ele>174.75</ele><time>2026-04-19T15:32:51.999Z</time></trkpt><trkpt lat="44.90889578103776" lon="8.993644000131031"><ele>174.5</ele><time>2026-04-19T15:32:52.999Z</time></trkpt><trkpt lat="44.9089025723314" lon="8.993822698390968"><ele>174.25</ele><time>2026-04-19T15:32:53.999Z</time></trkpt><trkpt lat="44.908906543851295" lon="8.9939915946857"><ele>174.0</ele><time>2026-04-19T15:32:54.999Z</time></trkpt><trkpt lat="44.90890681749038" lon="8.99416402460239"><ele>174.5</ele><time>2026-04-19T15:32:55.999Z</time></trkpt><trkpt lat="44.90890916977069" lon="8.994334167675799"><ele>175.0</ele><time>2026-04-19T15:32:56.999Z</time></trkpt><trkpt lat="44.908915937299874" lon="8.994499652293644"><ele>175.5</ele><time>2026-04-19T15:32:57.999Z</time></trkpt><trkpt lat="44.90891836080701" lon="8.994664266184657"><ele>176.0</ele><time>2026-04-19T15:32:58.999Z</time></trkpt><trkpt lat="44.908925740980294" lon="8.994827855739807"><ele>176.0</ele><time>2026-04-19T15:32:59.999Z</time></trkpt><trkpt lat="44.9089313651647" lon="8.994991891211155"><ele>176.0</ele><time>2026-04-19T15:33:00.999Z</time></trkpt><trkpt lat="44.908938868305924" lon="8.995158907688182"><ele>176.0</ele><time>2026-04-19T15:33:01.999Z</time></trkpt><trkpt lat="44.90894329843592" lon="8.995331360586949"><ele>176.0</ele><time>2026-04-19T15:33:02.999Z</time></trkpt><trkpt lat="44.90895142904517" lon="8.995506315010637"><ele>177.75</ele><time>2026-04-19T15:33:03.999Z</time></trkpt><trkpt lat="44.90895696574544" lon="8.995680626533373"><ele>179.5</ele><time>2026-04-19T15:33:04.999Z</time></trkpt><trkpt lat="44.9089626876737" lon="8.995860348289481"><ele>181.25</ele><time>2026-04-19T15:33:05.999Z</time></trkpt><trkpt lat="44.90896933095612" lon="8.996036581267814"><ele>183.0</ele><time>2026-04-19T15:33:06.999Z</time></trkpt><trkpt lat="44.90897334384126" lon="8.996219126299021"><ele>184.5</ele><time>2026-04-19T15:33:07.999Z</time></trkpt><trkpt lat="44.90897828763312" lon="8.996403048550711"><ele>186.0</ele><time>2026-04-19T15:33:08.999Z</time></trkpt><trkpt lat="44.908988479254255" lon="8.996585490421026"><ele>187.5</ele><time>2026-04-19T15:33:09.999Z</time></trkpt><trkpt lat="44.90899571451407" lon="8.99677741884486"><ele>189.0</ele><time>2026-04-19T15:33:10.999Z</time></trkpt><trkpt lat="44.9090013494707" lon="8.996974777671205"><ele>190.33333333333331</ele><time>2026-04-19T15:33:11.999Z</time></trkpt><trkpt lat="44.90901195059039" lon="8.997193195603124"><ele>191.66666666666666</ele><time>2026-04-19T15:33:12.999Z</time></trkpt><trkpt lat="44.90901886064643" lon="8.997435026457744"><ele>193.0</ele><time>2026-04-19T15:33:13.999Z</time></trkpt><trkpt lat="44.9090201382609" lon="8.997647059974964"><ele>193.5</ele><time>2026-04-19T15:33:14.999Z</time></trkpt><trkpt lat="44.90902240744699" lon="8.997839079295513"><ele>194.0</ele><time>2026-04-19T15:33:15.998Z</time></trkpt><trkpt lat="44.90902570035305" lon="8.99800510846001"><ele>194.5</ele><time>2026-04-19T15:33:16.998Z</time></trkpt><trkpt lat="44.9090325909381" lon="8.99815272568963"><ele>195.0</ele><time>2026-04-19T15:33:17.998Z</time></trkpt><trkpt lat="44.909041401194635" lon="8.998294950388791"><ele>194.6</ele><time>2026-04-19T15:33:18.998Z</time></trkpt><trkpt lat="44.90904228076694" lon="8.998415975620166"><ele>194.2</ele><time>2026-04-19T15:33:19.998Z</time></trkpt><trkpt lat="44.90904416940514" lon="8.998535225748373"><ele>193.8</ele><time>2026-04-19T15:33:20.998Z</time></trkpt><trkpt lat="44.9090514568824" lon="8.998677196864985"><ele>193.4</ele><time>2026-04-19T15:33:22.998Z</time></trkpt><trkpt lat="44.909170392058876" lon="8.998716042302302"><ele>193.0</ele><time>2026-04-19T15:33:25.998Z</time></trkpt><trkpt lat="44.909228656928676" lon="8.998677710624262"><ele>191.66666666666666</ele><time>2026-04-19T15:33:26.998Z</time></trkpt><trkpt lat="44.909306082987804" lon="8.998648958272831"><ele>190.33333333333331</ele><time>2026-04-19T15:33:27.998Z</time></trkpt><trkpt lat="44.909412895103486" lon="8.998667400477439"><ele>189.0</ele><time>2026-04-19T15:33:29.998Z</time></trkpt><trkpt lat="44.90946205805938" lon="8.998745906005189"><ele>187.66666666666666</ele><time>2026-04-19T15:33:30.998Z</time></trkpt><trkpt lat="44.9094878532553" lon="8.998864114807205"><ele>186.33333333333331</ele><time>2026-04-19T15:33:31.998Z</time></trkpt><trkpt lat="44.90954649394809" lon="8.998964467512886"><ele>185.0</ele><time>2026-04-19T15:33:32.998Z</time></trkpt><trkpt lat="44.90959993674815" lon="8.9990768449054"><ele>185.2</ele><time>2026-04-19T15:33:33.998Z</time></trkpt><trkpt lat="44.90965902533638" lon="8.999196105907085"><ele>185.4</ele><time>2026-04-19T15:33:34.998Z</time></trkpt><trkpt lat="44.90972463958338" lon="8.999321229253345"><ele>185.60000000000002</ele><time>2026-04-19T15:33:35.998Z</time></trkpt><trkpt lat="44.90979494504599" lon="8.999453091226394"><ele>185.8</ele><time>2026-04-19T15:33:36.998Z</time></trkpt><trkpt lat="44.90986444171936" lon="8.999579337714406"><ele>186.0</ele><time>2026-04-19T15:33:37.998Z</time></trkpt><trkpt lat="44.909940585935786" lon="8.999701572295756"><ele>186.0</ele><time>2026-04-19T15:33:38.998Z</time></trkpt><trkpt lat="44.910010047314444" lon="8.999827474307832"><ele>186.0</ele><time>2026-04-19T15:33:39.998Z</time></trkpt><trkpt lat="44.91006924105195" lon="8.999950130681333"><ele>186.0</ele><time>2026-04-19T15:33:40.998Z</time></trkpt><trkpt lat="44.91013287526406" lon="9.000078336717856"><ele>186.0</ele><time>2026-04-19T15:33:41.998Z</time></trkpt><trkpt lat="44.91019748305861" lon="9.0001965039938"><ele>186.0</ele><time>2026-04-19T15:33:42.998Z</time></trkpt><trkpt lat="44.91026127052225" lon="9.000312666948478"><ele>186.60000000000002</ele><time>2026-04-19T15:33:43.998Z</time></trkpt><trkpt lat="44.91031801069921" lon="9.000429643802706"><ele>187.2</ele><time>2026-04-19T15:33:44.998Z</time></trkpt><trkpt lat="44.91037629090084" lon="9.00054134619105"><ele>187.8</ele><time>2026-04-19T15:33:45.998Z</time></trkpt><trkpt lat="44.91043547232492" lon="9.000655432879066"><ele>188.39999999999998</ele><time>2026-04-19T15:33:46.998Z</time></trkpt><trkpt lat="44.910491998570755" lon="9.00078242521478"><ele>189.0</ele><time>2026-04-19T15:33:47.998Z</time></trkpt><trkpt lat="44.910542908408466" lon="9.0009116014787"><ele>190.0</ele><time>2026-04-19T15:33:48.998Z</time></trkpt><trkpt lat="44.91059632924685" lon="9.00102297691113"><ele>191.0</ele><time>2026-04-19T15:33:49.998Z</time></trkpt><trkpt lat="44.910647409594034" lon="9.001132297707576"><ele>192.0</ele><time>2026-04-19T15:33:50.998Z</time></trkpt><trkpt lat="44.91069128396911" lon="9.001222361180051"><ele>193.0</ele><time>2026-04-19T15:33:51.998Z</time></trkpt><trkpt lat="44.910741824395565" lon="9.00130217758068"><ele>194.0</ele><time>2026-04-19T15:33:52.998Z</time></trkpt><trkpt lat="44.91080391496924" lon="9.00142012742336"><ele>195.0</ele><time>2026-04-19T15:33:54.998Z</time></trkpt><trkpt lat="44.91088152262332" lon="9.00133307706784"><ele>195.0</ele><time>2026-04-19T15:33:59.997Z</time></trkpt><trkpt lat="44.91088943227297" lon="9.001208746470455"><ele>195.0</ele><time>2026-04-19T15:34:02.997Z</time></trkpt><trkpt lat="44.91090059529889" lon="9.001111917610377"><ele>195.0</ele><time>2026-04-19T15:34:04.997Z</time></trkpt><trkpt lat="44.91102018609827" lon="9.001176403062491"><ele>195.0</ele><time>2026-04-19T15:34:07.997Z</time></trkpt><trkpt lat="44.91106118987322" lon="9.001259771797574"><ele>195.0</ele><time>2026-04-19T15:34:08.997Z</time></trkpt><trkpt lat="44.91111181023577" lon="9.00135488164056"><ele>195.0</ele><time>2026-04-19T15:34:09.997Z</time></trkpt><trkpt lat="44.911159118210556" lon="9.00144219243683"><ele>193.33333333333334</ele><time>2026-04-19T15:34:10.997Z</time></trkpt><trkpt lat="44.911195615264134" lon="9.00152783535006"><ele>191.66666666666666</ele><time>2026-04-19T15:34:11.997Z</time></trkpt><trkpt lat="44.91122500666185" lon="9.001616139932976"><ele>190.0</ele><time>2026-04-19T15:34:12.997Z</time></trkpt><trkpt lat="44.91125470188998" lon="9.001792450917643"><ele>188.33333333333331</ele><time>2026-04-19T15:34:14.997Z</time></trkpt><trkpt lat="44.91125320474457" lon="9.00191391222081"><ele>186.66666666666666</ele><time>2026-04-19T15:34:15.997Z</time></trkpt><trkpt lat="44.91125594663055" lon="9.002035347165421"><ele>185.0</ele><time>2026-04-19T15:34:16.997Z</time></trkpt><trkpt lat="44.91126121462358" lon="9.002170531615166"><ele>184.5</ele><time>2026-04-19T15:34:17.997Z</time></trkpt><trkpt lat="44.91126900719854" lon="9.002265536726355"><ele>184.0</ele><time>2026-04-19T15:34:18.997Z</time></trkpt><trkpt lat="44.911284065227655" lon="9.002366128891321"><ele>183.5</ele><time>2026-04-19T15:34:19.997Z</time></trkpt><trkpt lat="44.91131309105369" lon="9.002473747105851"><ele>183.0</ele><time>2026-04-19T15:34:20.997Z</time></trkpt><trkpt lat="44.91135834679786" lon="9.00257491945272"><ele>182.5</ele><time>2026-04-19T15:34:22Z</time></trkpt><trkpt lat="44.91139720388944" lon="9.002673204562292"><ele>182.0</ele><time>2026-04-19T15:34:23Z</time></trkpt><trkpt lat="44.911432906439416" lon="9.002770621057781"><ele>181.83333333333331</ele><time>2026-04-19T15:34:24Z</time></trkpt><trkpt lat="44.91146069083678" lon="9.002864209917165"><ele>181.66666666666666</ele><time>2026-04-19T15:34:25Z</time></trkpt><trkpt lat="44.911488519842486" lon="9.002968252766053"><ele>181.5</ele><time>2026-04-19T15:34:26Z</time></trkpt><trkpt lat="44.91151590013255" lon="9.003062997315459"><ele>181.33333333333334</ele><time>2026-04-19T15:34:27Z</time></trkpt><trkpt lat="44.91154391448832" lon="9.003203465339267"><ele>181.16666666666669</ele><time>2026-04-19T15:34:29Z</time></trkpt><trkpt lat="44.91158619882864" lon="9.003289219120987"><ele>181.0</ele><time>2026-04-19T15:34:31Z</time></trkpt><trkpt lat="44.91165449808135" lon="9.003300586883547"><ele>181.33333333333334</ele><time>2026-04-19T15:34:33Z</time></trkpt><trkpt lat="44.91171271657161" lon="9.00339168690147"><ele>181.66666666666669</ele><time>2026-04-19T15:34:35Z</time></trkpt><trkpt lat="44.91177520092694" lon="9.003526950633795"><ele>182.0</ele><time>2026-04-19T15:34:37Z</time></trkpt><trkpt lat="44.911825901077215" lon="9.003610337511567"><ele>182.33333333333334</ele><time>2026-04-19T15:34:38Z</time></trkpt><trkpt lat="44.91187867757372" lon="9.003672814383792"><ele>182.66666666666666</ele><time>2026-04-19T15:34:39Z</time></trkpt><trkpt lat="44.91194700064107" lon="9.003733116707616"><ele>183.0</ele><time>2026-04-19T15:34:40Z</time></trkpt><trkpt lat="44.912009338745804" lon="9.003784883401119"><ele>182.66666666666666</ele><time>2026-04-19T15:34:41Z</time></trkpt><trkpt lat="44.912083450532556" lon="9.003840470529001"><ele>182.33333333333334</ele><time>2026-04-19T15:34:42Z</time></trkpt><trkpt lat="44.912161735292486" lon="9.003902173378338"><ele>182.0</ele><time>2026-04-19T15:34:43Z</time></trkpt><trkpt lat="44.91223658754898" lon="9.003963709170542"><ele>181.66666666666669</ele><time>2026-04-19T15:34:43.999Z</time></trkpt><trkpt lat="44.91231008061929" lon="9.004025981419307"><ele>181.33333333333334</ele><time>2026-04-19T15:34:44.999Z</time></trkpt><trkpt lat="44.91238003955936" lon="9.004092558123926"><ele>181.0</ele><time>2026-04-19T15:34:45.999Z</time></trkpt><trkpt lat="44.91245426100681" lon="9.004167862727689"><ele>181.0</ele><time>2026-04-19T15:34:46.999Z</time></trkpt><trkpt lat="44.91252859809393" lon="9.004240936363573"><ele>181.0</ele><time>2026-04-19T15:34:47.999Z</time></trkpt><trkpt lat="44.91260492827739" lon="9.004320815865201"><ele>181.0</ele><time>2026-04-19T15:34:48.999Z</time></trkpt><trkpt lat="44.912686773077226" lon="9.004401172816053"><ele>181.0</ele><time>2026-04-19T15:34:49.999Z</time></trkpt><trkpt lat="44.91275893574409" lon="9.00448218503679"><ele>181.0</ele><time>2026-04-19T15:34:50.999Z</time></trkpt><trkpt lat="44.91284935548838" lon="9.004577361021612"><ele>183.0</ele><time>2026-04-19T15:34:51.999Z</time></trkpt><trkpt lat="44.912921124782955" lon="9.004653009653884"><ele>185.0</ele><time>2026-04-19T15:34:52.999Z</time></trkpt><trkpt lat="44.91300832518842" lon="9.004750362084533"><ele>187.0</ele><time>2026-04-19T15:34:53.999Z</time></trkpt><trkpt lat="44.91308832938098" lon="9.00484798720783"><ele>189.0</ele><time>2026-04-19T15:34:54.999Z</time></trkpt><trkpt lat="44.913162961391194" lon="9.004937203159264"><ele>191.0</ele><time>2026-04-19T15:34:55.999Z</time></trkpt><trkpt lat="44.91324214445951" lon="9.005024033608057"><ele>191.20000000000002</ele><time>2026-04-19T15:34:56.999Z</time></trkpt><trkpt lat="44.913321126271654" lon="9.005095678788189"><ele>191.4</ele><time>2026-04-19T15:34:57.999Z</time></trkpt><trkpt lat="44.9134046973633" lon="9.005157761949434"><ele>191.6</ele><time>2026-04-19T15:34:58.999Z</time></trkpt><trkpt lat="44.91349356318952" lon="9.005192494770041"><ele>191.8</ele><time>2026-04-19T15:34:59.999Z</time></trkpt><trkpt lat="44.91358454296365" lon="9.0052053408845"><ele>192.0</ele><time>2026-04-19T15:35:00.999Z</time></trkpt><trkpt lat="44.913683262726636" lon="9.005219219183802"><ele>193.39999999999998</ele><time>2026-04-19T15:35:01.999Z</time></trkpt><trkpt lat="44.91374686050321" lon="9.00522599117343"><ele>194.79999999999998</ele><time>2026-04-19T15:35:02.999Z</time></trkpt><trkpt lat="44.913821144930616" lon="9.005237770225024"><ele>196.2</ele><time>2026-04-19T15:35:03.999Z</time></trkpt><trkpt lat="44.91393638596241" lon="9.005292857590737"><ele>197.6</ele><time>2026-04-19T15:35:05.999Z</time></trkpt><trkpt lat="44.913943789561166" lon="9.005412806658459"><ele>199.0</ele><time>2026-04-19T15:35:10.999Z</time></trkpt><trkpt lat="44.913945232975166" lon="9.005620064895584"><ele>198.99999999999997</ele><time>2026-04-19T15:35:12.999Z</time></trkpt><trkpt lat="44.913971007145605" lon="9.005723205312188"><ele>199.0</ele><time>2026-04-19T15:35:13.999Z</time></trkpt><trkpt lat="44.913991310890154" lon="9.005833733252192"><ele>199.0</ele><time>2026-04-19T15:35:14.999Z</time></trkpt><trkpt lat="44.91401213010049" lon="9.005933885849373"><ele>199.0</ele><time>2026-04-19T15:35:15.999Z</time></trkpt><trkpt lat="44.914019750291615" lon="9.006074144644808"><ele>198.99999999999997</ele><time>2026-04-19T15:35:16.999Z</time></trkpt><trkpt lat="44.91404455989621" lon="9.00621630318958"><ele>199.0</ele><time>2026-04-19T15:35:17.999Z</time></trkpt><trkpt lat="44.914076797503924" lon="9.00633820834168"><ele>199.16666666666666</ele><time>2026-04-19T15:35:18.999Z</time></trkpt><trkpt lat="44.91409702408059" lon="9.006457545317172"><ele>199.33333333333331</ele><time>2026-04-19T15:35:19.999Z</time></trkpt><trkpt lat="44.91411771641652" lon="9.006564753411073"><ele>199.5</ele><time>2026-04-19T15:35:20.999Z</time></trkpt><trkpt lat="44.914133425036766" lon="9.006659396272582"><ele>199.66666666666669</ele><time>2026-04-19T15:35:21.999Z</time></trkpt><trkpt lat="44.91414460472411" lon="9.006798148057257"><ele>199.83333333333334</ele><time>2026-04-19T15:35:22.999Z</time></trkpt><trkpt lat="44.91416242210772" lon="9.006903267062192"><ele>200.0</ele><time>2026-04-19T15:35:23.999Z</time></trkpt><trkpt lat="44.914181117901364" lon="9.007013568491143"><ele>199.8</ele><time>2026-04-19T15:35:24.999Z</time></trkpt><trkpt lat="44.91423052682712" lon="9.007226457502982"><ele>199.6</ele><time>2026-04-19T15:35:26.999Z</time></trkpt><trkpt lat="44.91424829624357" lon="9.007342186449545"><ele>199.39999999999998</ele><time>2026-04-19T15:35:27.999Z</time></trkpt><trkpt lat="44.914269742956954" lon="9.007437288572739"><ele>199.2</ele><time>2026-04-19T15:35:28.998Z</time></trkpt><trkpt lat="44.914309772676816" lon="9.007563294202143"><ele>199.0</ele><time>2026-04-19T15:35:30.998Z</time></trkpt><trkpt lat="44.91436084093528" lon="9.007670901288662"><ele>199.33333333333331</ele><time>2026-04-19T15:35:32.998Z</time></trkpt><trkpt lat="44.91444514793251" lon="9.00778887403191"><ele>199.66666666666666</ele><time>2026-04-19T15:35:34.998Z</time></trkpt><trkpt lat="44.914488917821615" lon="9.007855400819192"><ele>200.0</ele><time>2026-04-19T15:35:35.998Z</time></trkpt><trkpt lat="44.914520984037026" lon="9.007945739222624"><ele>200.33333333333331</ele><time>2026-04-19T15:35:36.998Z</time></trkpt><trkpt lat="44.914567436283576" lon="9.008023789593121"><ele>200.66666666666666</ele><time>2026-04-19T15:35:37.998Z</time></trkpt><trkpt lat="44.91462791087732" lon="9.008094052369978"><ele>201.0</ele><time>2026-04-19T15:35:38.998Z</time></trkpt><trkpt lat="44.91468153281534" lon="9.00818190028442"><ele>201.0</ele><time>2026-04-19T15:35:39.998Z</time></trkpt><trkpt lat="44.91472449584478" lon="9.00828768555982"><ele>201.0</ele><time>2026-04-19T15:35:40.998Z</time></trkpt><trkpt lat="44.91479160435628" lon="9.008365072916773"><ele>201.0</ele><time>2026-04-19T15:35:41.998Z</time></trkpt><trkpt lat="44.914840294098205" lon="9.008453701287126"><ele>201.0</ele><time>2026-04-19T15:35:42.998Z</time></trkpt><trkpt lat="44.914867785634236" lon="9.008547814661268"><ele>201.0</ele><time>2026-04-19T15:35:43.998Z</time></trkpt><trkpt lat="44.91492714469999" lon="9.008690129955955"><ele>201.0</ele><time>2026-04-19T15:35:45.998Z</time></trkpt><trkpt lat="44.914968574012484" lon="9.0088063174691"><ele>201.0</ele><time>2026-04-19T15:35:47.998Z</time></trkpt><trkpt lat="44.91499841554693" lon="9.008888397626682"><ele>201.0</ele><time>2026-04-19T15:35:50.998Z</time></trkpt><trkpt lat="44.91507935599984" lon="9.008935203659894"><ele>201.0</ele><time>2026-04-19T15:35:52.998Z</time></trkpt><trkpt lat="44.91514499041986" lon="9.008963270587628"><ele>201.0</ele><time>2026-04-19T15:35:53.998Z</time></trkpt><trkpt lat="44.915215802838425" lon="9.00898521476625"><ele>201.0</ele><time>2026-04-19T15:35:54.998Z</time></trkpt><trkpt lat="44.91529026163022" lon="9.00901310836117"><ele>201.0</ele><time>2026-04-19T15:35:55.998Z</time></trkpt><trkpt lat="44.915365290480615" lon="9.009056208018643"><ele>201.0</ele><time>2026-04-19T15:35:56.998Z</time></trkpt><trkpt lat="44.9154426633196" lon="9.009057020713803"><ele>201.0</ele><time>2026-04-19T15:35:57.998Z</time></trkpt><trkpt lat="44.915518303310705" lon="9.009071400682457"><ele>201.0</ele><time>2026-04-19T15:35:58.998Z</time></trkpt><trkpt lat="44.91558828625614" lon="9.00907127497777"><ele>201.0</ele><time>2026-04-19T15:35:59.998Z</time></trkpt><trkpt lat="44.9156584699943" lon="9.009085285231064"><ele>201.0</ele><time>2026-04-19T15:36:00.998Z</time></trkpt><trkpt lat="44.91572844781072" lon="9.00906092599069"><ele>201.0</ele><time>2026-04-19T15:36:01.998Z</time></trkpt><trkpt lat="44.91579597992735" lon="9.009058689332337"><ele>201.0</ele><time>2026-04-19T15:36:02.998Z</time></trkpt><trkpt lat="44.91590968110452" lon="9.009052279960443"><ele>200.33333333333334</ele><time>2026-04-19T15:36:04.998Z</time></trkpt><trkpt lat="44.91597527959164" lon="9.00905405410878"><ele>199.66666666666669</ele><time>2026-04-19T15:36:05.998Z</time></trkpt><trkpt lat="44.916053803586294" lon="9.009050156196203"><ele>199.0</ele><time>2026-04-19T15:36:06.998Z</time></trkpt><trkpt lat="44.916133907445364" lon="9.009042252673877"><ele>198.33333333333334</ele><time>2026-04-19T15:36:07.998Z</time></trkpt><trkpt lat="44.91623191475017" lon="9.009030571522867"><ele>197.66666666666669</ele><time>2026-04-19T15:36:08.998Z</time></trkpt><trkpt lat="44.91633249478914" lon="9.00902044388699"><ele>197.0</ele><time>2026-04-19T15:36:09.998Z</time></trkpt><trkpt lat="44.91643071265169" lon="9.009011018036817"><ele>197.00000000000003</ele><time>2026-04-19T15:36:10.997Z</time></trkpt><trkpt lat="44.91651717767811" lon="9.00900572757151"><ele>197.0</ele><time>2026-04-19T15:36:11.997Z</time></trkpt><trkpt lat="44.91660368351001" lon="9.009007875970202"><ele>197.0</ele><time>2026-04-19T15:36:12.997Z</time></trkpt><trkpt lat="44.91667569811529" lon="9.009014807880389"><ele>197.0</ele><time>2026-04-19T15:36:13.997Z</time></trkpt><trkpt lat="44.916770960075624" lon="9.009051417909193"><ele>197.00000000000003</ele><time>2026-04-19T15:36:14.997Z</time></trkpt><trkpt lat="44.91684773963371" lon="9.009101897752315"><ele>197.0</ele><time>2026-04-19T15:36:15.997Z</time></trkpt><trkpt lat="44.91692095087627" lon="9.009159888510935"><ele>195.2</ele><time>2026-04-19T15:36:16.997Z</time></trkpt><trkpt lat="44.917002145193436" lon="9.009244155229348"><ele>193.39999999999998</ele><time>2026-04-19T15:36:17.997Z</time></trkpt><trkpt lat="44.91709129388048" lon="9.009316809348126"><ele>191.60000000000002</ele><time>2026-04-19T15:36:18.997Z</time></trkpt><trkpt lat="44.91718380254726" lon="9.009396119154728"><ele>189.8</ele><time>2026-04-19T15:36:19.997Z</time></trkpt><trkpt lat="44.917273136596194" lon="9.009466880310361"><ele>188.0</ele><time>2026-04-19T15:36:20.997Z</time></trkpt><trkpt lat="44.917368795350946" lon="9.009542642532331"><ele>188.0</ele><time>2026-04-19T15:36:21.997Z</time></trkpt><trkpt lat="44.91747201656009" lon="9.009606285419865"><ele>188.0</ele><time>2026-04-19T15:36:22.997Z</time></trkpt><trkpt lat="44.91757571014443" lon="9.009666840649613"><ele>188.0</ele><time>2026-04-19T15:36:23.997Z</time></trkpt><trkpt lat="44.91768512455875" lon="9.009723781848045"><ele>188.0</ele><time>2026-04-19T15:36:24.997Z</time></trkpt><trkpt lat="44.9177990918813" lon="9.009780490636143"><ele>186.25</ele><time>2026-04-19T15:36:25.997Z</time></trkpt><trkpt lat="44.91791435573946" lon="9.00983919639431"><ele>184.5</ele><time>2026-04-19T15:36:27Z</time></trkpt><trkpt lat="44.9180280676974" lon="9.009915790435013"><ele>182.75</ele><time>2026-04-19T15:36:28Z</time></trkpt><trkpt lat="44.918146860179554" lon="9.009951285613049"><ele>181.0</ele><time>2026-04-19T15:36:29Z</time></trkpt><trkpt lat="44.91825592043164" lon="9.01000989145756"><ele>181.0</ele><time>2026-04-19T15:36:30Z</time></trkpt><trkpt lat="44.918368139390225" lon="9.010068593820721"><ele>181.0</ele><time>2026-04-19T15:36:31Z</time></trkpt><trkpt lat="44.91847976607299" lon="9.01011013243155"><ele>181.0</ele><time>2026-04-19T15:36:32Z</time></trkpt><trkpt lat="44.9185985896537" lon="9.01015035071644"><ele>181.0</ele><time>2026-04-19T15:36:33Z</time></trkpt><trkpt lat="44.91871789783492" lon="9.01018938714121"><ele>180.5</ele><time>2026-04-19T15:36:34Z</time></trkpt><trkpt lat="44.918839284133185" lon="9.010232776313302"><ele>180.0</ele><time>2026-04-19T15:36:35Z</time></trkpt><trkpt lat="44.91895647679065" lon="9.010275405672912"><ele>179.5</ele><time>2026-04-19T15:36:36Z</time></trkpt><trkpt lat="44.91907223326753" lon="9.010313506885817"><ele>179.0</ele><time>2026-04-19T15:36:37Z</time></trkpt><trkpt lat="44.91919163347636" lon="9.010348951180365"><ele>178.5</ele><time>2026-04-19T15:36:38Z</time></trkpt><trkpt lat="44.91930969429422" lon="9.01038424206081"><ele>178.0</ele><time>2026-04-19T15:36:39Z</time></trkpt><trkpt lat="44.91942923080488" lon="9.01041284287288"><ele>177.5</ele><time>2026-04-19T15:36:40Z</time></trkpt><trkpt lat="44.919551366465235" lon="9.010439320711102"><ele>177.0</ele><time>2026-04-19T15:36:41Z</time></trkpt><trkpt lat="44.9196627394744" lon="9.010455947481468"><ele>177.0</ele><time>2026-04-19T15:36:42Z</time></trkpt><trkpt lat="44.919779696744584" lon="9.010471743995788"><ele>177.0</ele><time>2026-04-19T15:36:43Z</time></trkpt><trkpt lat="44.91990402423348" lon="9.010485767896457"><ele>177.0</ele><time>2026-04-19T15:36:44Z</time></trkpt><trkpt lat="44.92001936912504" lon="9.010505618855946"><ele>177.0</ele><time>2026-04-19T15:36:45Z</time></trkpt><trkpt lat="44.92014107508542" lon="9.010526178846602"><ele>176.0</ele><time>2026-04-19T15:36:46Z</time></trkpt><trkpt lat="44.92026337585718" lon="9.010551732924261"><ele>175.0</ele><time>2026-04-19T15:36:47Z</time></trkpt><trkpt lat="44.920386206668745" lon="9.010577352289355"><ele>174.0</ele><time>2026-04-19T15:36:48Z</time></trkpt><trkpt lat="44.92050631142696" lon="9.010598267396661"><ele>173.0</ele><time>2026-04-19T15:36:49Z</time></trkpt><trkpt lat="44.92062688321374" lon="9.010617366220911"><ele>173.0</ele><time>2026-04-19T15:36:50Z</time></trkpt><trkpt lat="44.9207561478539" lon="9.010651667929748"><ele>173.0</ele><time>2026-04-19T15:36:51Z</time></trkpt><trkpt lat="44.920880179656095" lon="9.010675021144754"><ele>173.0</ele><time>2026-04-19T15:36:52Z</time></trkpt><trkpt lat="44.921008720315484" lon="9.010709304882784"><ele>173.0</ele><time>2026-04-19T15:36:53Z</time></trkpt><trkpt lat="44.92113548372345" lon="9.010744349906277"><ele>172.0</ele><time>2026-04-19T15:36:54Z</time></trkpt><trkpt lat="44.92126255026617" lon="9.01077768046028"><ele>171.0</ele><time>2026-04-19T15:36:55Z</time></trkpt><trkpt lat="44.92139377016116" lon="9.010809292070773"><ele>170.0</ele><time>2026-04-19T15:36:55.999Z</time></trkpt><trkpt lat="44.921522730988386" lon="9.01083521309253"><ele>169.0</ele><time>2026-04-19T15:36:56.999Z</time></trkpt><trkpt lat="44.92165434326282" lon="9.010866616296493"><ele>167.75</ele><time>2026-04-19T15:36:57.999Z</time></trkpt><trkpt lat="44.92178174990537" lon="9.010901697653177"><ele>166.5</ele><time>2026-04-19T15:36:58.999Z</time></trkpt><trkpt lat="44.92191014717778" lon="9.010941475723026"><ele>165.25</ele><time>2026-04-19T15:36:59.999Z</time></trkpt><trkpt lat="44.922035474354246" lon="9.010991887076957"><ele>164.0</ele><time>2026-04-19T15:37:00.999Z</time></trkpt><trkpt lat="44.92215927205111" lon="9.011016744877983"><ele>164.0</ele><time>2026-04-19T15:37:01.999Z</time></trkpt><trkpt lat="44.92228889689543" lon="9.011035329377265"><ele>164.0</ele><time>2026-04-19T15:37:02.999Z</time></trkpt><trkpt lat="44.92242156319425" lon="9.01104191732431"><ele>164.0</ele><time>2026-04-19T15:37:03.999Z</time></trkpt><trkpt lat="44.92255133172256" lon="9.01104553678433"><ele>164.0</ele><time>2026-04-19T15:37:04.999Z</time></trkpt><trkpt lat="44.92268572105506" lon="9.011074303801143"><ele>164.0</ele><time>2026-04-19T15:37:05.999Z</time></trkpt><trkpt lat="44.922816499441915" lon="9.01106632516565"><ele>164.0</ele><time>2026-04-19T15:37:06.999Z</time></trkpt><trkpt lat="44.922953144476246" lon="9.0110682386918"><ele>164.0</ele><time>2026-04-19T15:37:07.999Z</time></trkpt><trkpt lat="44.923083847418845" lon="9.01107360662821"><ele>164.0</ele><time>2026-04-19T15:37:08.999Z</time></trkpt><trkpt lat="44.92322292303599" lon="9.011068210960948"><ele>164.0</ele><time>2026-04-19T15:37:09.999Z</time></trkpt><trkpt lat="44.923356085754534" lon="9.01107599873984"><ele>164.0</ele><time>2026-04-19T15:37:10.999Z</time></trkpt><trkpt lat="44.92347937212051" lon="9.011080854844394"><ele>164.0</ele><time>2026-04-19T15:37:11.999Z</time></trkpt><trkpt lat="44.92359100266272" lon="9.011084182528297"><ele>164.0</ele><time>2026-04-19T15:37:12.999Z</time></trkpt><trkpt lat="44.92369535206069" lon="9.011097406621623"><ele>163.39999999999998</ele><time>2026-04-19T15:37:13.999Z</time></trkpt><trkpt lat="44.923795768818295" lon="9.01111359491124"><ele>162.8</ele><time>2026-04-19T15:37:14.999Z</time></trkpt><trkpt lat="44.923900319074356" lon="9.011121540016923"><ele>162.2</ele><time>2026-04-19T15:37:15.999Z</time></trkpt><trkpt lat="44.924008149883235" lon="9.011130870372028"><ele>161.60000000000002</ele><time>2026-04-19T15:37:16.999Z</time></trkpt><trkpt lat="44.92411542348752" lon="9.01114663960879"><ele>161.0</ele><time>2026-04-19T15:37:17.999Z</time></trkpt><trkpt lat="44.92421958499643" lon="9.011164068228334"><ele>160.60000000000002</ele><time>2026-04-19T15:37:18.999Z</time></trkpt><trkpt lat="44.92431829806947" lon="9.01117877291561"><ele>160.20000000000002</ele><time>2026-04-19T15:37:19.999Z</time></trkpt><trkpt lat="44.92441772962046" lon="9.011189687967722"><ele>159.8</ele><time>2026-04-19T15:37:20.999Z</time></trkpt><trkpt lat="44.92451269946699" lon="9.011212190848708"><ele>159.4</ele><time>2026-04-19T15:37:21.999Z</time></trkpt><trkpt lat="44.92461474399337" lon="9.011243305441614"><ele>159.0</ele><time>2026-04-19T15:37:22.999Z</time></trkpt><trkpt lat="44.92472084317205" lon="9.011259276941022"><ele>159.0</ele><time>2026-04-19T15:37:23.999Z</time></trkpt><trkpt lat="44.92482208314216" lon="9.011273906070382"><ele>159.0</ele><time>2026-04-19T15:37:24.999Z</time></trkpt><trkpt lat="44.92492488370141" lon="9.01128742119487"><ele>159.0</ele><time>2026-04-19T15:37:25.999Z</time></trkpt><trkpt lat="44.925031737478285" lon="9.011301469194546"><ele>159.0</ele><time>2026-04-19T15:37:26.999Z</time></trkpt><trkpt lat="44.92514102886305" lon="9.011294091154415"><ele>159.0</ele><time>2026-04-19T15:37:27.999Z</time></trkpt><trkpt lat="44.92524366332787" lon="9.011309094153944"><ele>158.8</ele><time>2026-04-19T15:37:28.999Z</time></trkpt><trkpt lat="44.92533964269107" lon="9.011330991900763"><ele>158.60000000000002</ele><time>2026-04-19T15:37:29.999Z</time></trkpt><trkpt lat="44.92542613859604" lon="9.011356076603207"><ele>158.4</ele><time>2026-04-19T15:37:30.999Z</time></trkpt><trkpt lat="44.925524781627836" lon="9.011393030218258"><ele>158.20000000000002</ele><time>2026-04-19T15:37:31.999Z</time></trkpt><trkpt lat="44.925613882735696" lon="9.011436377699152"><ele>158.0</ele><time>2026-04-19T15:37:32.999Z</time></trkpt><trkpt lat="44.92569941831048" lon="9.01151454254945"><ele>158.0</ele><time>2026-04-19T15:37:33.999Z</time></trkpt><trkpt lat="44.925801384420446" lon="9.011559109820176"><ele>158.0</ele><time>2026-04-19T15:37:34.999Z</time></trkpt><trkpt lat="44.92589623561772" lon="9.011622954815717"><ele>158.0</ele><time>2026-04-19T15:37:35.999Z</time></trkpt><trkpt lat="44.925984564728786" lon="9.011685695493455"><ele>158.0</ele><time>2026-04-19T15:37:36.999Z</time></trkpt><trkpt lat="44.926077438125056" lon="9.0117594128778"><ele>158.0</ele><time>2026-04-19T15:37:37.999Z</time></trkpt><trkpt lat="44.926151598570506" lon="9.011828631328688"><ele>157.83333333333331</ele><time>2026-04-19T15:37:38.999Z</time></trkpt><trkpt lat="44.926212126938715" lon="9.011898503759552"><ele>157.66666666666666</ele><time>2026-04-19T15:37:39.998Z</time></trkpt><trkpt lat="44.926275982362206" lon="9.011959558576018"><ele>157.5</ele><time>2026-04-19T15:37:40.998Z</time></trkpt><trkpt lat="44.926329934681384" lon="9.01200562784157"><ele>157.33333333333334</ele><time>2026-04-19T15:37:41.998Z</time></trkpt><trkpt lat="44.92641236556778" lon="9.012107336579898"><ele>157.16666666666669</ele><time>2026-04-19T15:37:43.998Z</time></trkpt><trkpt lat="44.92645093340005" lon="9.012189644783144"><ele>157.0</ele><time>2026-04-19T15:37:44.998Z</time></trkpt><trkpt lat="44.92649294591083" lon="9.012271106510813"><ele>157.0</ele><time>2026-04-19T15:37:45.998Z</time></trkpt><trkpt lat="44.92652990104345" lon="9.012356248278286"><ele>157.0</ele><time>2026-04-19T15:37:46.998Z</time></trkpt><trkpt lat="44.92656827776752" lon="9.012448939840555"><ele>157.0</ele><time>2026-04-19T15:37:47.998Z</time></trkpt><trkpt lat="44.92660894332708" lon="9.012547929276126"><ele>157.0</ele><time>2026-04-19T15:37:48.998Z</time></trkpt><trkpt lat="44.92664833490341" lon="9.012645487183466"><ele>157.0</ele><time>2026-04-19T15:37:49.998Z</time></trkpt><trkpt lat="44.92668967322156" lon="9.01274683585384"><ele>157.0</ele><time>2026-04-19T15:37:50.998Z</time></trkpt><trkpt lat="44.92673085417581" lon="9.012850426081096"><ele>156.79999999999998</ele><time>2026-04-19T15:37:51.998Z</time></trkpt><trkpt lat="44.92676725179715" lon="9.012957180301074"><ele>156.6</ele><time>2026-04-19T15:37:52.998Z</time></trkpt><trkpt lat="44.92681115369872" lon="9.013074928647919"><ele>156.39999999999998</ele><time>2026-04-19T15:37:53.998Z</time></trkpt><trkpt lat="44.92685117817852" lon="9.01317937159012"><ele>156.2</ele><time>2026-04-19T15:37:54.998Z</time></trkpt><trkpt lat="44.92690205618947" lon="9.013302566979997"><ele>156.0</ele><time>2026-04-19T15:37:55.998Z</time></trkpt><trkpt lat="44.926972741720185" lon="9.013467969530607"><ele>156.0</ele><time>2026-04-19T15:37:56.998Z</time></trkpt><trkpt lat="44.92704701157917" lon="9.013649370490958"><ele>156.0</ele><time>2026-04-19T15:37:57.998Z</time></trkpt><trkpt lat="44.9271078217309" lon="9.013819982015374"><ele>156.0</ele><time>2026-04-19T15:37:58.998Z</time></trkpt><trkpt lat="44.927162946064705" lon="9.013967021688991"><ele>156.0</ele><time>2026-04-19T15:37:59.998Z</time></trkpt><trkpt lat="44.92722379538987" lon="9.014102041164502"><ele>155.8</ele><time>2026-04-19T15:38:00.998Z</time></trkpt><trkpt lat="44.9272703843029" lon="9.014226277261098"><ele>155.6</ele><time>2026-04-19T15:38:01.998Z</time></trkpt><trkpt lat="44.92730665742457" lon="9.01433106492134"><ele>155.4</ele><time>2026-04-19T15:38:02.998Z</time></trkpt><trkpt lat="44.92735196951664" lon="9.014441805149461"><ele>155.2</ele><time>2026-04-19T15:38:03.998Z</time></trkpt><trkpt lat="44.927398333511086" lon="9.014536525521287"><ele>155.0</ele><time>2026-04-19T15:38:04.998Z</time></trkpt><trkpt lat="44.92747117195014" lon="9.014627893308775"><ele>155.0</ele><time>2026-04-19T15:38:05.998Z</time></trkpt><trkpt lat="44.927541230004934" lon="9.01468487235391"><ele>155.0</ele><time>2026-04-19T15:38:06.998Z</time></trkpt><trkpt lat="44.9276165722411" lon="9.014736163388609"><ele>155.0</ele><time>2026-04-19T15:38:07.998Z</time></trkpt><trkpt lat="44.92769358354671" lon="9.014787061303569"><ele>155.0</ele><time>2026-04-19T15:38:08.998Z</time></trkpt><trkpt lat="44.92778094633194" lon="9.014837870060386"><ele>155.0</ele><time>2026-04-19T15:38:09.998Z</time></trkpt><trkpt lat="44.92786444158417" lon="9.014896112788303"><ele>155.0</ele><time>2026-04-19T15:38:10.998Z</time></trkpt><trkpt lat="44.927945346148014" lon="9.01496041894621"><ele>155.0</ele><time>2026-04-19T15:38:11.998Z</time></trkpt><trkpt lat="44.928022501893885" lon="9.015011278399529"><ele>155.0</ele><time>2026-04-19T15:38:12.998Z</time></trkpt><trkpt lat="44.92810115173505" lon="9.015057175718297"><ele>155.0</ele><time>2026-04-19T15:38:13.998Z</time></trkpt><trkpt lat="44.92818917241238" lon="9.015104113844643"><ele>155.0</ele><time>2026-04-19T15:38:14.998Z</time></trkpt><trkpt lat="44.92826167616552" lon="9.015132491415635"><ele>155.0</ele><time>2026-04-19T15:38:15.998Z</time></trkpt><trkpt lat="44.928326129560276" lon="9.015162848894114"><ele>155.0</ele><time>2026-04-19T15:38:16.998Z</time></trkpt><trkpt lat="44.928416996206465" lon="9.01526531999511"><ele>155.0</ele><time>2026-04-19T15:38:18.998Z</time></trkpt><trkpt lat="44.928451789005" lon="9.015342799197892"><ele>155.0</ele><time>2026-04-19T15:38:19.998Z</time></trkpt><trkpt lat="44.9284871970203" lon="9.01541833038923"><ele>155.0</ele><time>2026-04-19T15:38:20.998Z</time></trkpt><trkpt lat="44.92855949332647" lon="9.015566881346304"><ele>155.0</ele><time>2026-04-19T15:38:22.997Z</time></trkpt><trkpt lat="44.92859448405236" lon="9.015648842069423"><ele>155.0</ele><time>2026-04-19T15:38:23.997Z</time></trkpt><trkpt lat="44.92865583355633" lon="9.015788306305003"><ele>155.0</ele><time>2026-04-19T15:38:25.997Z</time></trkpt><trkpt lat="44.928710485089994" lon="9.01593199327561"><ele>154.75</ele><time>2026-04-19T15:38:27.997Z</time></trkpt><trkpt lat="44.92876060070714" lon="9.016073815851803"><ele>154.5</ele><time>2026-04-19T15:38:29.997Z</time></trkpt><trkpt lat="44.9287987077227" lon="9.016223573531397"><ele>154.25</ele><time>2026-04-19T15:38:31.997Z</time></trkpt><trkpt lat="44.92884927329686" lon="9.016368479523495"><ele>154.0</ele><time>2026-04-19T15:38:34Z</time></trkpt><trkpt lat="44.92891761135636" lon="9.016495877103885"><ele>154.0</ele><time>2026-04-19T15:38:36Z</time></trkpt><trkpt lat="44.928986835017376" lon="9.01661521367558"><ele>154.0</ele><time>2026-04-19T15:38:38Z</time></trkpt><trkpt lat="44.92907778779123" lon="9.016744521151038"><ele>154.0</ele><time>2026-04-19T15:38:40Z</time></trkpt><trkpt lat="44.929131981212834" lon="9.016809511336483"><ele>154.0</ele><time>2026-04-19T15:38:41Z</time></trkpt><trkpt lat="44.92923603384933" lon="9.016797705012419"><ele>154.0</ele><time>2026-04-19T15:38:43Z</time></trkpt><trkpt lat="44.92934444993212" lon="9.016823062631522"><ele>154.16666666666669</ele><time>2026-04-19T15:38:45Z</time></trkpt><trkpt lat="44.92944748255993" lon="9.016850173134833"><ele>154.33333333333334</ele><time>2026-04-19T15:38:47Z</time></trkpt><trkpt lat="44.92951219338572" lon="9.016846531488186"><ele>154.5</ele><time>2026-04-19T15:38:49Z</time></trkpt><trkpt lat="44.92959432549555" lon="9.016826554162654"><ele>154.66666666666666</ele><time>2026-04-19T15:38:52Z</time></trkpt><trkpt lat="44.92967316268072" lon="9.016854934257417"><ele>154.83333333333331</ele><time>2026-04-19T15:38:55Z</time></trkpt><trkpt lat="44.92975071563659" lon="9.016894902691055"><ele>155.0</ele><time>2026-04-19T15:38:58Z</time></trkpt><trkpt lat="44.92982561848113" lon="9.017084036049066"><ele>155.0</ele><time>2026-04-19T15:39:02Z</time></trkpt><trkpt lat="44.929823954395104" lon="9.017255651512514"><ele>155.0</ele><time>2026-04-19T15:39:04Z</time></trkpt><trkpt lat="44.92984005829384" lon="9.017427682011256"><ele>155.0</ele><time>2026-04-19T15:39:06Z</time></trkpt><trkpt lat="44.92985025529618" lon="9.017524493026919"><ele>155.0</ele><time>2026-04-19T15:39:07Z</time></trkpt><trkpt lat="44.92985884763772" lon="9.01762367260192"><ele>155.0</ele><time>2026-04-19T15:39:08Z</time></trkpt><trkpt lat="44.929867640097" lon="9.017726110178883"><ele>154.8</ele><time>2026-04-19T15:39:09Z</time></trkpt><trkpt lat="44.92987495598863" lon="9.017827683690651"><ele>154.6</ele><time>2026-04-19T15:39:09.999Z</time></trkpt><trkpt lat="44.9298955154048" lon="9.01799282263046"><ele>154.4</ele><time>2026-04-19T15:39:11.999Z</time></trkpt><trkpt lat="44.929909770753" lon="9.018119423331148"><ele>154.2</ele><time>2026-04-19T15:39:13.999Z</time></trkpt><trkpt lat="44.929921268129526" lon="9.018250291057265"><ele>154.0</ele><time>2026-04-19T15:39:15.999Z</time></trkpt><trkpt lat="44.929940254014134" lon="9.018379480094875"><ele>153.5</ele><time>2026-04-19T15:39:17.999Z</time></trkpt><trkpt lat="44.92993141057832" lon="9.018472543242423"><ele>153.0</ele><time>2026-04-19T15:39:18.999Z</time></trkpt><trkpt lat="44.9299392124313" lon="9.018583165307064"><ele>152.5</ele><time>2026-04-19T15:39:19.999Z</time></trkpt><trkpt lat="44.92996122617262" lon="9.018711396283093"><ele>152.0</ele><time>2026-04-19T15:39:20.999Z</time></trkpt><trkpt lat="44.929958570390795" lon="9.018831475364125"><ele>151.5</ele><time>2026-04-19T15:39:21.999Z</time></trkpt><trkpt lat="44.92996136395981" lon="9.018956532395475"><ele>151.0</ele><time>2026-04-19T15:39:22.999Z</time></trkpt><trkpt lat="44.92996886176039" lon="9.019072107443906"><ele>150.42857142857144</ele><time>2026-04-19T15:39:23.999Z</time></trkpt><trkpt lat="44.92997430594398" lon="9.01917354028206"><ele>149.85714285714286</ele><time>2026-04-19T15:39:24.999Z</time></trkpt><trkpt lat="44.92998040521768" lon="9.019272839304449"><ele>149.28571428571428</ele><time>2026-04-19T15:39:25.999Z</time></trkpt><trkpt lat="44.9299865565041" lon="9.019366873356143"><ele>148.71428571428572</ele><time>2026-04-19T15:39:26.999Z</time></trkpt><trkpt lat="44.92999201453564" lon="9.01945900338981"><ele>148.14285714285714</ele><time>2026-04-19T15:39:27.999Z</time></trkpt><trkpt lat="44.92999905044105" lon="9.01954823753427"><ele>147.57142857142858</ele><time>2026-04-19T15:39:28.999Z</time></trkpt><trkpt lat="44.93000336599242" lon="9.019637210508279"><ele>147.0</ele><time>2026-04-19T15:39:29.999Z</time></trkpt><trkpt lat="44.93000261634336" lon="9.019798644772559"><ele>147.0</ele><time>2026-04-19T15:39:31.999Z</time></trkpt><trkpt lat="44.92997856853914" lon="9.01993587687531"><ele>147.0</ele><time>2026-04-19T15:39:33.999Z</time></trkpt><trkpt lat="44.92991802915757" lon="9.020091578684806"><ele>147.0</ele><time>2026-04-19T15:39:35.999Z</time></trkpt><trkpt lat="44.929929039661445" lon="9.020256985571336"><ele>147.0</ele><time>2026-04-19T15:39:37.999Z</time></trkpt><trkpt lat="44.9299858710288" lon="9.020330033256542"><ele>147.0</ele><time>2026-04-19T15:39:38.999Z</time></trkpt><trkpt lat="44.93004903845374" lon="9.020397664517542"><ele>147.5</ele><time>2026-04-19T15:39:39.999Z</time></trkpt><trkpt lat="44.930089703523095" lon="9.020494658775812"><ele>148.0</ele><time>2026-04-19T15:39:40.999Z</time></trkpt><trkpt lat="44.93009955098845" lon="9.020619870680967"><ele>148.5</ele><time>2026-04-19T15:39:41.999Z</time></trkpt><trkpt lat="44.9300967176095" lon="9.020740111758217"><ele>149.0</ele><time>2026-04-19T15:39:42.999Z</time></trkpt><trkpt lat="44.93009893435523" lon="9.020875877544938"><ele>149.5</ele><time>2026-04-19T15:39:43.999Z</time></trkpt><trkpt lat="44.9301055684297" lon="9.020998013573898"><ele>150.0</ele><time>2026-04-19T15:39:44.999Z</time></trkpt><trkpt lat="44.930109304371754" lon="9.021118847471294"><ele>150.2</ele><time>2026-04-19T15:39:45.999Z</time></trkpt><trkpt lat="44.930119726631006" lon="9.021251329769177"><ele>150.4</ele><time>2026-04-19T15:39:46.999Z</time></trkpt><trkpt lat="44.93013240011437" lon="9.021365083487334"><ele>150.6</ele><time>2026-04-19T15:39:47.999Z</time></trkpt><trkpt lat="44.93014426482555" lon="9.021494370154063"><ele>150.8</ele><time>2026-04-19T15:39:48.999Z</time></trkpt><trkpt lat="44.930148290157135" lon="9.021627160152924"><ele>151.0</ele><time>2026-04-19T15:39:49.999Z</time></trkpt><trkpt lat="44.93015201541631" lon="9.021756502985296"><ele>151.16666666666669</ele><time>2026-04-19T15:39:50.999Z</time></trkpt><trkpt lat="44.93016098998565" lon="9.021884554683636"><ele>151.33333333333334</ele><time>2026-04-19T15:39:51.999Z</time></trkpt><trkpt lat="44.93017074935138" lon="9.022014188572225"><ele>151.5</ele><time>2026-04-19T15:39:52.998Z</time></trkpt><trkpt lat="44.93017717378777" lon="9.022116093788108"><ele>151.66666666666666</ele><time>2026-04-19T15:39:53.998Z</time></trkpt><trkpt lat="44.93018682202875" lon="9.022231306387717"><ele>151.83333333333331</ele><time>2026-04-19T15:39:54.998Z</time></trkpt><trkpt lat="44.93020101638155" lon="9.022331273187117"><ele>152.0</ele><time>2026-04-19T15:39:55.998Z</time></trkpt><trkpt lat="44.9302372292531" lon="9.022433527616805"><ele>152.33333333333331</ele><time>2026-04-19T15:39:56.998Z</time></trkpt><trkpt lat="44.93030147658445" lon="9.02250902777439"><ele>152.66666666666666</ele><time>2026-04-19T15:39:57.998Z</time></trkpt><trkpt lat="44.93037737679617" lon="9.022548078768114"><ele>153.0</ele><time>2026-04-19T15:39:58.998Z</time></trkpt><trkpt lat="44.93045882345153" lon="9.022558309190567"><ele>153.33333333333334</ele><time>2026-04-19T15:39:59.998Z</time></trkpt><trkpt lat="44.930530666558894" lon="9.022560869994503"><ele>153.66666666666669</ele><time>2026-04-19T15:40:00.998Z</time></trkpt><trkpt lat="44.93062545566703" lon="9.022574366733851"><ele>154.0</ele><time>2026-04-19T15:40:02.998Z</time></trkpt><trkpt lat="44.93065995139367" lon="9.022796637813133"><ele>154.0</ele><time>2026-04-19T15:40:06.998Z</time></trkpt><trkpt lat="44.93065360821263" lon="9.02288800589077"><ele>154.0</ele><time>2026-04-19T15:40:07.998Z</time></trkpt><trkpt lat="44.93064660837167" lon="9.022982807998773"><ele>154.0</ele><time>2026-04-19T15:40:08.998Z</time></trkpt><trkpt lat="44.93063380333287" lon="9.02314823849577"><ele>154.0</ele><time>2026-04-19T15:40:10.998Z</time></trkpt><trkpt lat="44.93061550490497" lon="9.023319545399703"><ele>154.0</ele><time>2026-04-19T15:40:12.998Z</time></trkpt><trkpt lat="44.93060308543362" lon="9.02349527349578"><ele>154.4</ele><time>2026-04-19T15:40:14.998Z</time></trkpt><trkpt lat="44.93058384532996" lon="9.02365797952977"><ele>154.8</ele><time>2026-04-19T15:40:16.998Z</time></trkpt><trkpt lat="44.930561309786235" lon="9.02377278405934"><ele>155.2</ele><time>2026-04-19T15:40:18.998Z</time></trkpt><trkpt lat="44.930541638504714" lon="9.02390557964499"><ele>155.6</ele><time>2026-04-19T15:40:20.998Z</time></trkpt><trkpt lat="44.930535949076706" lon="9.024027153871296"><ele>156.0</ele><time>2026-04-19T15:40:22.998Z</time></trkpt><trkpt lat="44.93066896629453" lon="9.023772009942492"><ele>156.0</ele><time>2026-04-19T15:40:27.998Z</time></trkpt></trkseg></trk></gpx>